Time;durP1;ratioP1;P1;durP2;ratioP2;P2;SDS_P1;SDS_P2;PMS_P1;PMS_P2;Temp;Humidity;BMP_temperature;BMP_pressure;BME280_temperature;BME280_humidity;BME280_pressure;Samples;Min_cycle;Max_cycle;Signal;HPM_P1;HPM_P2
2021/07/26 00:00:00;;;;;;;3.50;2.67;;;22.20;74.50;;;;;;5073083;28;20448;-72
2021/07/26 00:02:28;;;;;;;2.97;2.67;;;22.00;74.90;;;;;;5073024;28;20460;-72
2021/07/26 00:04:55;;;;;;;5.43;3.10;;;22.00;75.40;;;;;;5072725;28;20440;-72
2021/07/26 00:07:21;;;;;;;3.40;3.10;;;22.00;75.70;;;;;;5072963;28;20479;-71
2021/07/26 00:09:48;;;;;;;4.87;3.10;;;21.90;75.30;;;;;;5073009;28;20498;-74
2021/07/26 00:12:15;;;;;;;4.83;3.00;;;21.90;75.80;;;;;;5072888;28;20457;-72
2021/07/26 00:14:41;;;;;;;3.57;3.27;;;21.90;76.00;;;;;;5072634;28;20444;-74
2021/07/26 00:17:08;;;;;;;2.93;2.63;;;21.90;76.00;;;;;;5072933;28;20448;-73
2021/07/26 00:19:36;;;;;;;4.20;3.17;;;21.80;76.20;;;;;;5073441;28;20467;-72
2021/07/26 00:22:03;;;;;;;3.77;3.10;;;21.80;75.80;;;;;;5075709;28;20472;-71
2021/07/26 00:24:30;;;;;;;5.13;2.80;;;21.80;76.10;;;;;;5076566;28;20514;-72
2021/07/26 00:26:57;;;;;;;5.50;3.13;;;21.70;76.50;;;;;;5076416;28;20487;-74
2021/07/26 00:29:23;;;;;;;3.27;2.90;;;21.70;76.70;;;;;;5076130;28;20947;-73
2021/07/26 00:31:50;;;;;;;4.60;3.53;;;21.70;76.80;;;;;;5076052;28;20970;-73
2021/07/26 00:34:21;;;;;;;4.40;2.80;;;21.70;76.60;;;;;;5076059;28;20984;-73
2021/07/26 00:36:50;;;;;;;4.60;2.70;;;21.70;76.40;;;;;;5076321;28;20467;-73
2021/07/26 00:39:20;;;;;;;2.80;2.37;;;21.70;76.30;;;;;;5076839;28;20447;-73
2021/07/26 00:41:47;;;;;;;3.40;2.40;;;21.70;76.20;;;;;;5076146;28;20491;-73
2021/07/26 00:44:15;;;;;;;2.67;2.47;;;21.70;76.30;;;;;;5076174;28;20501;-73
2021/07/26 00:46:42;;;;;;;2.20;2.00;;;21.80;76.50;;;;;;5075732;28;20519;-73
2021/07/26 00:49:10;;;;;;;3.90;2.73;;;21.80;76.40;;;;;;5076081;28;20449;-73
2021/07/26 00:51:39;;;;;;;4.27;2.87;;;21.80;76.20;;;;;;5075976;28;20464;-73
2021/07/26 00:54:08;;;;;;;4.17;2.50;;;21.80;76.10;;;;;;5075953;28;20472;-73
2021/07/26 00:56:35;;;;;;;4.13;2.87;;;21.90;76.00;;;;;;5075972;28;20445;-73
2021/07/26 00:59:03;;;;;;;3.87;2.93;;;21.80;75.50;;;;;;5075943;28;20444;-74
2021/07/26 01:01:30;;;;;;;3.90;2.93;;;21.80;75.70;;;;;;5075833;28;20468;-74
2021/07/26 01:03:56;;;;;;;4.20;2.57;;;21.80;75.90;;;;;;5075846;28;20441;-73
2021/07/26 01:06:23;;;;;;;4.77;3.00;;;21.80;76.00;;;;;;5075692;28;20449;-72
2021/07/26 01:08:50;;;;;;;3.07;2.77;;;21.80;76.00;;;;;;5075444;28;20448;-73
2021/07/26 01:11:18;;;;;;;3.60;3.17;;;21.90;76.00;;;;;;5075604;28;20786;-72
2021/07/26 01:13:45;;;;;;;5.37;2.80;;;21.80;75.80;;;;;;5075634;28;20445;-72
2021/07/26 01:16:12;;;;;;;3.40;3.10;;;21.70;76.20;;;;;;5075601;28;20445;-74
2021/07/26 01:18:39;;;;;;;3.23;2.50;;;21.50;76.20;;;;;;5075536;28;20445;-72
2021/07/26 01:21:09;;;;;;;2.90;2.60;;;21.40;77.00;;;;;;5075397;28;20460;-72
2021/07/26 01:23:37;;;;;;;3.50;2.67;;;21.40;77.40;;;;;;5076267;28;20432;-72
2021/07/26 01:26:06;;;;;;;3.23;2.70;;;21.30;77.30;;;;;;5075384;28;20474;-72
2021/07/26 01:28:36;;;;;;;3.10;2.40;;;21.20;77.30;;;;;;5075280;28;20480;-74
2021/07/26 01:31:03;;;;;;;3.00;2.60;;;21.20;77.70;;;;;;5075958;28;20480;-74
2021/07/26 01:33:30;;;;;;;2.93;2.30;;;21.20;77.80;;;;;;5075322;28;20444;-74
2021/07/26 01:35:57;;;;;;;3.20;2.90;;;21.20;77.90;;;;;;5074975;28;20444;-72
2021/07/26 01:38:25;;;;;;;3.43;2.60;;;21.10;78.00;;;;;;5075179;28;20440;-72
2021/07/26 01:40:54;;;;;;;3.93;2.50;;;21.10;78.10;;;;;;5075147;28;20467;-72
2021/07/26 01:43:24;;;;;;;3.23;2.70;;;21.10;78.20;;;;;;5074995;28;20465;-73
2021/07/26 01:46:01;;;;;;;5.00;2.90;;;21.00;78.60;;;;;;5075040;28;20494;-72
2021/07/26 01:48:33;;;;;;;3.50;3.03;;;21.00;78.50;;;;;;5074969;28;20467;-74
2021/07/26 01:51:02;;;;;;;6.50;2.77;;;21.00;78.90;;;;;;5074592;28;20897;-73
2021/07/26 01:53:31;;;;;;;7.83;3.03;;;21.00;79.00;;;;;;5074876;28;20506;-72
2021/07/26 01:55:58;;;;;;;3.60;3.00;;;21.00;78.90;;;;;;5074794;28;20450;-72
2021/07/26 01:58:26;;;;;;;3.90;2.57;;;21.00;78.90;;;;;;5074773;28;20526;-72
2021/07/26 02:00:53;;;;;;;6.33;2.30;;;21.00;78.60;;;;;;5074706;28;20453;-73
2021/07/26 02:03:19;;;;;;;3.10;2.70;;;20.90;78.70;;;;;;5074605;28;20491;-72
2021/07/26 02:05:46;;;;;;;3.20;2.90;;;20.90;79.10;;;;;;5074585;28;20447;-73
2021/07/26 02:08:13;;;;;;;2.90;2.70;;;20.90;79.00;;;;;;5074517;28;20480;-73
2021/07/26 02:10:41;;;;;;;3.00;2.60;;;20.90;79.20;;;;;;5074513;28;20453;-72
2021/07/26 02:13:07;;;;;;;3.03;2.60;;;20.90;79.00;;;;;;5074386;28;20490;-72
2021/07/26 02:15:34;;;;;;;3.63;2.97;;;20.90;78.90;;;;;;5074450;28;20441;-72
2021/07/26 02:18:00;;;;;;;3.90;2.70;;;21.00;78.80;;;;;;5074363;28;20443;-72
2021/07/26 02:20:27;;;;;;;2.90;2.70;;;21.00;78.80;;;;;;5074309;28;20503;-72
2021/07/26 02:22:54;;;;;;;2.93;2.63;;;21.00;78.60;;;;;;5073853;28;20861;-73
2021/07/26 02:25:20;;;;;;;5.80;2.67;;;21.00;78.50;;;;;;5074287;28;20441;-72
2021/07/26 02:27:50;;;;;;;2.43;2.23;;;21.00;78.60;;;;;;5074079;28;20477;-72
2021/07/26 02:30:16;;;;;;;6.90;2.80;;;21.00;78.60;;;;;;5074114;28;20448;-72
2021/07/26 02:32:43;;;;;;;2.40;2.20;;;21.10;78.70;;;;;;5074050;28;20491;-72
2021/07/26 02:35:11;;;;;;;3.40;2.63;;;21.10;78.60;;;;;;5074023;28;20452;-72
2021/07/26 02:37:38;;;;;;;2.90;2.60;;;21.10;78.60;;;;;;5073999;28;20445;-72
2021/07/26 02:40:06;;;;;;;3.20;2.80;;;21.20;78.50;;;;;;5073993;28;20490;-72
2021/07/26 02:42:32;;;;;;;3.40;2.57;;;21.20;78.30;;;;;;5073845;28;20465;-71
2021/07/26 02:45:01;;;;;;;3.93;2.37;;;21.20;78.20;;;;;;5073128;28;20951;-72
2021/07/26 02:47:27;;;;;;;4.33;2.57;;;21.20;78.20;;;;;;5073782;28;21061;-72
2021/07/26 02:49:54;;;;;;;3.53;2.80;;;21.20;78.00;;;;;;5073837;28;20441;-74
2021/07/26 02:52:21;;;;;;;2.63;2.43;;;21.10;77.80;;;;;;5073440;28;21000;-73
2021/07/26 02:54:47;;;;;;;2.63;2.43;;;21.10;78.20;;;;;;5073750;28;20803;-74
2021/07/26 02:57:14;;;;;;;3.17;2.60;;;21.10;78.00;;;;;;5073747;28;20441;-72
2021/07/26 02:59:41;;;;;;;2.90;2.30;;;21.00;78.10;;;;;;5073719;28;20444;-73
2021/07/26 03:02:09;;;;;;;2.50;2.30;;;20.90;78.60;;;;;;5073604;28;20468;-73
2021/07/26 03:04:35;;;;;;;2.27;2.17;;;20.90;79.00;;;;;;5073340;28;20445;-73
2021/07/26 03:07:02;;;;;;;3.10;2.80;;;20.80;79.10;;;;;;5073222;28;20818;-73
2021/07/26 03:09:29;;;;;;;2.60;2.20;;;20.80;79.50;;;;;;5073599;28;20448;-73
2021/07/26 03:11:55;;;;;;;2.60;2.40;;;20.70;79.70;;;;;;5073566;28;20460;-74
2021/07/26 03:14:22;;;;;;;2.83;2.53;;;20.70;79.90;;;;;;5073544;28;20441;-74
2021/07/26 03:16:49;;;;;;;2.40;2.20;;;20.70;80.00;;;;;;5073208;28;20837;-74
2021/07/26 03:19:17;;;;;;;3.23;2.63;;;20.70;80.00;;;;;;5073475;28;20455;-74
2021/07/26 03:21:43;;;;;;;3.00;2.80;;;20.60;80.00;;;;;;5072978;28;20991;-74
2021/07/26 03:24:10;;;;;;;2.90;2.37;;;20.60;80.00;;;;;;5073428;28;20808;-74
2021/07/26 03:26:37;;;;;;;3.07;2.27;;;20.70;80.10;;;;;;5073453;28;20444;-74
2021/07/26 03:29:04;;;;;;;2.53;2.33;;;20.70;79.90;;;;;;5073341;28;20480;-74
2021/07/26 03:31:30;;;;;;;3.10;2.73;;;20.70;79.90;;;;;;5073321;28;20460;-74
2021/07/26 03:33:57;;;;;;;4.03;2.90;;;20.80;79.80;;;;;;5073048;28;20449;-73
2021/07/26 03:36:25;;;;;;;6.80;2.90;;;20.80;79.50;;;;;;5073335;28;20849;-73
2021/07/26 03:38:52;;;;;;;5.77;2.80;;;20.80;79.30;;;;;;5074147;28;20440;-73
2021/07/26 03:41:21;;;;;;;2.77;2.57;;;20.80;79.60;;;;;;5073240;28;20448;-74
2021/07/26 03:43:48;;;;;;;2.83;2.60;;;20.90;79.80;;;;;;5073247;28;20551;-73
2021/07/26 03:46:14;;;;;;;3.93;2.50;;;20.80;79.60;;;;;;5073244;28;20449;-73
2021/07/26 03:48:41;;;;;;;2.77;2.57;;;20.90;79.80;;;;;;5073152;28;20477;-73
2021/07/26 03:51:08;;;;;;;2.87;2.53;;;20.90;79.70;;;;;;5073121;28;20449;-74
2021/07/26 03:53:36;;;;;;;4.97;3.00;;;21.00;79.70;;;;;;5072872;28;20445;-73
2021/07/26 03:56:02;;;;;;;2.93;2.63;;;21.00;79.30;;;;;;5074525;28;20923;-73
2021/07/26 03:58:29;;;;;;;3.47;3.17;;;21.00;79.10;;;;;;5077061;28;20447;-73
2021/07/26 04:00:56;;;;;;;5.00;3.33;;;21.00;78.90;;;;;;5077030;28;20452;-73
2021/07/26 04:03:25;;;;;;;3.60;3.00;;;20.90;78.80;;;;;;5076884;28;20460;-73
2021/07/26 04:05:58;;;;;;;3.03;2.60;;;20.90;79.00;;;;;;5076912;28;20448;-73
2021/07/26 04:08:27;;;;;;;3.20;2.73;;;20.80;79.10;;;;;;5076828;28;20472;-73
2021/07/26 04:11:02;;;;;;;2.90;2.50;;;20.80;79.50;;;;;;5076495;28;20939;-73
2021/07/26 04:13:28;;;;;;;5.30;2.50;;;20.70;79.70;;;;;;5076770;28;20832;-73
2021/07/26 04:15:55;;;;;;;2.43;2.23;;;20.70;79.90;;;;;;5076746;28;20445;-73
2021/07/26 04:18:22;;;;;;;3.50;2.60;;;20.70;80.00;;;;;;5076672;28;20441;-73
2021/07/26 04:20:49;;;;;;;4.90;2.60;;;20.70;80.20;;;;;;5076629;28;20444;-73
2021/07/26 04:23:15;;;;;;;3.27;2.97;;;20.70;80.40;;;;;;5076191;28;20468;-73
2021/07/26 04:25:42;;;;;;;2.43;2.23;;;20.60;80.30;;;;;;5076135;28;20478;-73
2021/07/26 04:28:10;;;;;;;4.07;3.07;;;20.60;80.30;;;;;;5076282;28;20479;-73
2021/07/26 04:30:37;;;;;;;4.40;2.70;;;20.60;80.80;;;;;;5076434;28;20471;-73
2021/07/26 04:33:04;;;;;;;2.77;2.57;;;20.60;80.80;;;;;;5076362;28;20465;-73
2021/07/26 04:35:30;;;;;;;3.40;3.07;;;20.60;80.80;;;;;;5076405;28;20445;-73
2021/07/26 04:37:57;;;;;;;2.80;2.60;;;20.60;80.80;;;;;;5076333;28;20782;-73
2021/07/26 04:40:24;;;;;;;2.70;2.23;;;20.60;80.80;;;;;;5076297;28;20470;-73
2021/07/26 04:42:51;;;;;;;3.67;2.90;;;20.60;80.90;;;;;;5075870;28;21009;-73
2021/07/26 04:45:19;;;;;;;2.90;2.50;;;20.60;81.00;;;;;;5076189;28;20501;-73
2021/07/26 04:47:46;;;;;;;3.00;2.70;;;20.70;81.00;;;;;;5075780;28;20472;-73
2021/07/26 04:50:13;;;;;;;3.00;2.80;;;20.70;81.00;;;;;;5076129;28;20452;-73
2021/07/26 04:52:39;;;;;;;4.43;3.10;;;20.80;81.00;;;;;;5076017;28;20464;-73
2021/07/26 04:55:08;;;;;;;2.70;2.30;;;20.80;80.90;;;;;;5076003;28;20440;-73
2021/07/26 04:57:34;;;;;;;2.40;2.20;;;20.80;80.80;;;;;;5075998;28;20498;-73
2021/07/26 05:00:01;;;;;;;2.80;2.60;;;20.90;80.90;;;;;;5075935;28;20445;-73
2021/07/26 05:02:29;;;;;;;2.90;2.70;;;20.90;80.60;;;;;;5075494;28;20461;-73
2021/07/26 05:04:56;;;;;;;2.60;2.07;;;20.90;80.60;;;;;;5075829;28;20448;-73
2021/07/26 05:07:22;;;;;;;5.33;2.73;;;20.90;80.30;;;;;;5075402;28;20440;-73
2021/07/26 05:09:49;;;;;;;3.30;2.90;;;21.00;80.50;;;;;;5075785;28;20443;-73
2021/07/26 05:12:16;;;;;;;2.97;2.67;;;21.10;80.80;;;;;;5075641;28;20461;-73
2021/07/26 05:14:43;;;;;;;3.20;2.90;;;21.10;80.50;;;;;;5075362;28;20930;-73
2021/07/26 05:17:10;;;;;;;3.03;2.73;;;21.20;80.50;;;;;;5075614;28;20466;-73
2021/07/26 05:19:38;;;;;;;4.67;2.63;;;21.30;80.20;;;;;;5075595;28;20432;-74
2021/07/26 05:22:06;;;;;;;3.33;2.77;;;21.40;80.10;;;;;;5075165;28;20492;-73
2021/07/26 05:24:33;;;;;;;6.33;2.60;;;21.40;79.70;;;;;;5075498;28;20517;-73
2021/07/26 05:27:01;;;;;;;3.23;2.63;;;21.50;79.60;;;;;;5075419;28;20447;-73
2021/07/26 05:29:28;;;;;;;3.07;2.80;;;21.60;79.50;;;;;;5075299;28;20489;-73
2021/07/26 05:31:55;;;;;;;4.20;2.97;;;21.60;79.20;;;;;;5074969;28;20468;-73
2021/07/26 05:34:22;;;;;;;3.47;3.17;;;21.70;79.00;;;;;;5074964;28;20967;-74
2021/07/26 05:36:50;;;;;;;2.80;2.60;;;21.80;78.60;;;;;;5074909;28;20938;-73
2021/07/26 05:39:17;;;;;;;4.43;2.83;;;21.80;77.90;;;;;;5075194;28;20441;-73
2021/07/26 05:41:44;;;;;;;2.90;2.40;;;21.80;78.20;;;;;;5074729;28;20882;-73
2021/07/26 05:44:11;;;;;;;5.03;2.70;;;21.90;79.40;;;;;;5075071;28;20447;-73
2021/07/26 05:46:37;;;;;;;7.73;3.10;;;21.90;78.00;;;;;;5074703;28;20464;-73
2021/07/26 05:49:04;;;;;;;4.20;3.00;;;22.00;77.70;;;;;;5074652;28;20473;-74
2021/07/26 05:51:31;;;;;;;3.97;3.10;;;22.00;77.30;;;;;;5074544;28;20469;-74
2021/07/26 05:53:59;;;;;;;5.90;3.07;;;22.00;77.30;;;;;;5074865;28;20449;-74
2021/07/26 05:56:28;;;;;;;3.50;3.10;;;22.10;76.90;;;;;;5074754;28;20452;-73
2021/07/26 05:58:54;;;;;;;3.40;3.10;;;22.10;76.80;;;;;;5074767;28;20445;-73
2021/07/26 06:01:35;;;;;;;3.33;2.90;;;22.10;76.50;;;;;;5074665;28;20464;-74
2021/07/26 06:04:03;;;;;;;3.30;3.00;;;22.20;76.50;;;;;;5074823;28;20455;-73
2021/07/26 06:06:30;;;;;;;3.47;3.17;;;22.30;76.40;;;;;;5074800;28;20503;-73
2021/07/26 06:08:56;;;;;;;3.60;3.30;;;22.30;76.20;;;;;;5074531;28;20479;-72
2021/07/26 06:11:24;;;;;;;3.63;3.07;;;22.30;75.90;;;;;;5074520;28;20469;-72
2021/07/26 06:13:51;;;;;;;3.23;2.93;;;22.30;75.60;;;;;;5074599;28;20815;-72
2021/07/26 06:16:18;;;;;;;6.07;3.50;;;22.30;76.10;;;;;;5074597;28;20447;-72
2021/07/26 06:18:45;;;;;;;6.60;3.00;;;22.30;76.20;;;;;;5073736;28;20565;-74
2021/07/26 06:21:12;;;;;;;3.27;3.07;;;22.30;76.20;;;;;;5074004;28;21006;-74
2021/07/26 06:23:39;;;;;;;7.63;3.10;;;22.20;76.10;;;;;;5074476;28;20428;-74
2021/07/26 06:26:07;;;;;;;4.10;3.67;;;22.20;75.90;;;;;;5074314;28;20448;-74
2021/07/26 06:28:35;;;;;;;5.63;3.33;;;22.10;76.30;;;;;;5074135;28;20476;-74
2021/07/26 06:31:03;;;;;;;6.20;2.70;;;22.10;76.30;;;;;;5074181;28;20445;-74
2021/07/26 06:33:30;;;;;;;3.27;2.77;;;22.10;76.40;;;;;;5074203;28;20486;-73
2021/07/26 06:35:57;;;;;;;3.27;2.97;;;22.10;76.70;;;;;;5073862;28;20859;-73
2021/07/26 06:38:24;;;;;;;7.43;3.60;;;22.20;77.00;;;;;;5074074;28;20849;-73
2021/07/26 06:40:50;;;;;;;3.63;2.73;;;22.20;76.40;;;;;;5074110;28;20472;-72
2021/07/26 06:43:17;;;;;;;6.80;2.73;;;22.20;76.40;;;;;;5073982;28;20472;-72
2021/07/26 06:45:45;;;;;;;4.33;3.27;;;22.30;76.50;;;;;;5074228;28;20440;-73
2021/07/26 06:48:12;;;;;;;10.87;3.20;;;22.40;76.40;;;;;;5073778;28;20445;-74
2021/07/26 06:50:39;;;;;;;6.07;3.50;;;22.40;76.70;;;;;;5073541;28;20440;-74
2021/07/26 06:53:06;;;;;;;4.47;3.60;;;22.50;76.80;;;;;;5073735;28;20497;-73
2021/07/26 06:55:33;;;;;;;7.90;3.23;;;22.60;76.70;;;;;;5073506;28;20953;-74
2021/07/26 06:58:00;;;;;;;3.20;2.90;;;22.60;76.40;;;;;;5073786;28;20452;-72
2021/07/26 07:00:26;;;;;;;3.50;3.20;;;22.70;76.10;;;;;;5073746;28;20436;-73
2021/07/26 07:02:54;;;;;;;4.37;2.80;;;22.70;75.40;;;;;;5073638;28;20857;-73
2021/07/26 07:05:21;;;;;;;9.30;3.00;;;22.70;73.70;;;;;;5073658;28;20456;-73
2021/07/26 07:07:48;;;;;;;3.20;2.90;;;22.80;73.90;;;;;;5073628;28;20445;-73
2021/07/26 07:10:14;;;;;;;5.90;3.33;;;22.80;74.00;;;;;;5073589;28;20481;-73
2021/07/26 07:12:41;;;;;;;8.73;3.07;;;22.80;73.60;;;;;;5073588;28;20472;-74
2021/07/26 07:15:09;;;;;;;2.70;2.50;;;22.90;73.30;;;;;;5073306;28;20977;-72
2021/07/26 07:17:35;;;;;;;5.07;2.70;;;22.80;72.60;;;;;;5073546;28;20440;-72
2021/07/26 07:20:04;;;;;;;18.83;9.57;;;22.70;72.00;;;;;;5073528;28;20452;-74
2021/07/26 07:22:31;;;;;;;11.23;5.37;;;22.70;72.70;;;;;;5073146;28;20483;-74
2021/07/26 07:24:58;;;;;;;6.53;3.77;;;22.60;72.40;;;;;;5073474;28;20460;-74
2021/07/26 07:27:24;;;;;;;4.73;2.70;;;22.60;73.20;;;;;;5073508;28;20507;-73
2021/07/26 07:29:51;;;;;;;5.77;3.30;;;22.70;72.90;;;;;;5075889;28;20484;-73
2021/07/26 07:32:18;;;;;;;4.27;2.80;;;22.80;72.50;;;;;;5079658;28;20840;-72
2021/07/26 07:34:44;;;;;;;3.77;2.63;;;22.90;72.20;;;;;;5080013;28;20467;-72
2021/07/26 07:37:12;;;;;;;3.13;2.83;;;23.10;71.50;;;;;;5080051;28;20449;-72
2021/07/26 07:39:39;;;;;;;5.83;2.30;;;23.20;70.30;;;;;;5079978;28;20448;-74
2021/07/26 07:42:07;;;;;;;3.27;2.93;;;23.40;69.50;;;;;;5079914;28;20464;-74
2021/07/26 07:44:34;;;;;;;5.10;2.50;;;23.60;68.00;;;;;;5079973;28;20448;-72
2021/07/26 07:47:01;;;;;;;4.13;2.80;;;23.80;67.30;;;;;;5079919;28;20452;-72
2021/07/26 07:49:28;;;;;;;7.30;2.50;;;24.10;66.20;;;;;;5079837;28;20476;-74
2021/07/26 07:51:55;;;;;;;3.83;2.40;;;24.30;65.70;;;;;;5079814;28;20471;-74
2021/07/26 07:54:23;;;;;;;7.80;2.40;;;24.60;64.10;;;;;;5079856;28;20440;-72
2021/07/26 07:56:51;;;;;;;4.50;2.73;;;24.90;62.60;;;;;;5079525;28;20820;-74
2021/07/26 07:59:18;;;;;;;2.50;2.23;;;25.20;60.70;;;;;;5079812;28;20452;-74
2021/07/26 08:01:45;;;;;;;3.70;2.60;;;25.50;60.90;;;;;;5079726;28;20835;-75
2021/07/26 08:04:15;;;;;;;3.47;2.67;;;25.70;59.00;;;;;;5079772;28;20451;-74
2021/07/26 08:06:43;;;;;;;3.43;2.20;;;25.80;58.00;;;;;;5079740;28;20471;-75
2021/07/26 08:09:10;;;;;;;3.20;2.40;;;25.80;58.10;;;;;;5079695;28;20472;-74
2021/07/26 08:11:38;;;;;;;5.77;2.30;;;25.80;57.90;;;;;;5079644;28;20464;-74
2021/07/26 08:14:05;;;;;;;6.27;2.47;;;25.80;58.20;;;;;;5079699;28;20440;-74
2021/07/26 08:16:32;;;;;;;4.70;3.00;;;25.70;58.40;;;;;;5079684;28;20444;-74
2021/07/26 08:18:59;;;;;;;5.07;2.53;;;25.70;58.40;;;;;;5079269;28;21014;-74
2021/07/26 08:21:28;;;;;;;11.93;2.60;;;25.70;58.20;;;;;;5079066;28;20997;-74
2021/07/26 08:23:55;;;;;;;3.10;2.90;;;25.60;58.20;;;;;;5079704;28;20512;-74
2021/07/26 08:26:22;;;;;;;3.93;2.63;;;25.60;58.40;;;;;;5079545;28;20444;-74
2021/07/26 08:28:50;;;;;;;2.60;2.40;;;25.70;58.80;;;;;;5079178;28;20483;-74
2021/07/26 08:31:16;;;;;;;2.57;2.37;;;25.90;58.40;;;;;;5079477;28;20876;-74
2021/07/26 08:33:43;;;;;;;3.10;2.80;;;26.20;57.60;;;;;;5079507;28;20448;-74
2021/07/26 08:36:11;;;;;;;4.10;2.60;;;26.40;57.40;;;;;;5079491;28;20448;-74
2021/07/26 08:38:37;;;;;;;3.83;2.53;;;26.60;56.10;;;;;;5079532;28;20448;-74
2021/07/26 08:41:04;;;;;;;5.13;2.80;;;26.70;55.90;;;;;;5077712;28;20448;-74
2021/07/26 08:43:31;;;;;;;2.70;2.50;;;26.80;55.90;;;;;;5076264;28;20448;-74
2021/07/26 08:46:00;;;;;;;2.03;1.93;;;26.80;55.30;;;;;;5076210;28;20448;-74
2021/07/26 08:48:31;;;;;;;3.53;2.30;;;26.70;55.20;;;;;;5076186;28;20444;-74
2021/07/26 08:51:01;;;;;;;4.83;2.40;;;26.50;55.50;;;;;;5075894;28;20461;-74
2021/07/26 08:53:27;;;;;;;2.43;2.20;;;26.40;55.50;;;;;;5076103;28;20452;-74
2021/07/26 08:55:55;;;;;;;3.77;2.10;;;26.50;55.40;;;;;;5075982;28;20448;-74
2021/07/26 08:58:22;;;;;;;2.83;2.50;;;26.70;55.60;;;;;;5076007;28;20531;-74
2021/07/26 09:00:48;;;;;;;3.67;2.33;;;26.80;55.00;;;;;;5075959;28;20573;-74
2021/07/26 09:03:17;;;;;;;4.13;2.83;;;27.00;55.00;;;;;;5075884;28;20460;-74
2021/07/26 09:05:44;;;;;;;2.30;2.10;;;27.10;54.30;;;;;;5075904;28;20490;-74
2021/07/26 09:08:11;;;;;;;2.70;2.50;;;27.30;54.00;;;;;;5075863;28;20452;-74
2021/07/26 09:10:44;;;;;;;3.13;2.40;;;27.40;53.50;;;;;;5075379;28;20479;-74
2021/07/26 09:13:12;;;;;;;3.97;2.33;;;27.50;52.50;;;;;;5075725;28;20464;-74
2021/07/26 09:15:41;;;;;;;2.93;2.30;;;27.60;51.70;;;;;;5075708;28;20457;-74
2021/07/26 09:18:09;;;;;;;2.73;2.53;;;27.50;51.60;;;;;;5075659;28;20452;-74
2021/07/26 09:20:40;;;;;;;2.60;2.40;;;27.20;52.30;;;;;;5075605;28;20448;-74
2021/07/26 09:23:12;;;;;;;3.70;2.07;;;27.10;53.10;;;;;;5075114;28;20472;-74
2021/07/26 09:25:41;;;;;;;3.30;2.57;;;26.90;53.10;;;;;;5075483;28;20535;-74
2021/07/26 09:28:10;;;;;;;3.30;2.90;;;26.70;53.00;;;;;;5075483;28;20449;-74
2021/07/26 09:30:42;;;;;;;2.73;2.53;;;26.50;53.40;;;;;;5075344;28;20480;-73
2021/07/26 09:33:21;;;;;;;7.10;2.57;;;26.40;53.60;;;;;;5075263;28;20460;-73
2021/07/26 09:36:08;;;;;;;2.73;2.10;;;26.30;54.20;;;;;;5075294;28;20451;-73
2021/07/26 09:38:35;;;;;;;3.00;2.40;;;26.30;53.60;;;;;;5074959;28;20922;-73
2021/07/26 09:41:02;;;;;;;2.70;2.50;;;26.40;53.70;;;;;;5075185;28;20444;-74
2021/07/26 09:43:29;;;;;;;2.80;2.47;;;26.60;53.10;;;;;;5075136;28;20528;-74
2021/07/26 09:45:57;;;;;;;3.07;2.17;;;26.80;52.00;;;;;;5075065;28;20448;-74
2021/07/26 09:48:26;;;;;;;3.87;2.70;;;26.90;51.30;;;;;;5075040;28;20531;-74
2021/07/26 09:50:53;;;;;;;2.87;2.40;;;27.00;51.90;;;;;;5074897;28;20571;-74
2021/07/26 09:53:22;;;;;;;5.80;2.07;;;27.20;51.50;;;;;;5073662;28;20471;-74
2021/07/26 09:55:51;;;;;;;3.50;2.03;;;27.40;50.00;;;;;;5074835;28;20445;-74
2021/07/26 09:58:19;;;;;;;2.70;1.97;;;27.60;48.60;;;;;;5074549;28;20444;-74
2021/07/26 10:00:47;;;;;;;4.50;1.90;;;27.80;49.10;;;;;;5074785;28;20445;-74
2021/07/26 10:03:16;;;;;;;1.57;1.47;;;28.10;48.20;;;;;;5074728;28;20460;-74
2021/07/26 10:05:43;;;;;;;1.73;1.60;;;28.50;47.40;;;;;;5074697;28;20445;-74
2021/07/26 10:08:10;;;;;;;2.47;2.27;;;28.80;46.30;;;;;;5074313;28;20455;-74
2021/07/26 10:10:39;;;;;;;2.87;2.07;;;29.00;46.80;;;;;;5074537;28;20476;-74
2021/07/26 10:13:07;;;;;;;2.00;1.90;;;29.20;46.20;;;;;;5074488;28;20468;-74
2021/07/26 10:15:35;;;;;;;3.00;1.90;;;29.40;45.20;;;;;;5074577;28;20818;-74
2021/07/26 10:18:01;;;;;;;4.53;2.23;;;29.60;44.10;;;;;;5074424;28;20445;-74
2021/07/26 10:20:30;;;;;;;2.23;2.03;;;29.80;43.80;;;;;;5074439;28;20781;-74
2021/07/26 10:23:04;;;;;;;3.10;2.27;;;30.10;43.30;;;;;;5073938;28;20481;-74
2021/07/26 10:25:40;;;;;;;6.93;2.10;;;30.50;42.80;;;;;;5074348;28;20435;-74
2021/07/26 10:28:12;;;;;;;5.50;1.83;;;30.90;40.40;;;;;;5074329;28;20435;-74
2021/07/26 10:30:39;;;;;;;2.80;2.60;;;31.30;40.80;;;;;;5074159;28;20465;-74
2021/07/26 10:33:07;;;;;;;2.50;2.30;;;31.50;39.00;;;;;;5074089;28;20559;-74
2021/07/26 10:35:36;;;;;;;2.67;2.50;;;31.60;38.30;;;;;;5073803;28;20452;-74
2021/07/26 10:38:03;;;;;;;4.30;2.80;;;31.50;38.80;;;;;;5074043;28;20436;-74
2021/07/26 10:40:31;;;;;;;3.37;2.03;;;31.50;38.50;;;;;;5073976;28;20448;-74
2021/07/26 10:43:02;;;;;;;4.13;2.30;;;31.30;39.30;;;;;;5073933;28;20457;-74
2021/07/26 10:46:07;;;;;;;4.93;2.30;;;31.40;39.20;;;;;;5073947;28;20474;-74
2021/07/26 10:48:36;;;;;;;2.73;2.30;;;31.60;39.60;;;;;;5073908;28;20467;-74
2021/07/26 10:51:23;;;;;;;2.50;2.30;;;31.70;38.10;;;;;;5073779;28;20567;-74
2021/07/26 10:53:56;;;;;;;2.30;2.10;;;31.60;39.00;;;;;;5073462;28;20448;-74
2021/07/26 10:56:23;;;;;;;2.37;2.17;;;31.30;41.50;;;;;;5073796;28;20467;-74
2021/07/26 10:59:02;;;;;;;2.83;2.60;;;30.90;41.00;;;;;;5073787;28;20452;-74
2021/07/26 11:01:35;;;;;;;3.40;1.93;;;30.50;41.30;;;;;;5073704;28;20464;-74
2021/07/26 11:04:02;;;;;;;5.53;2.70;;;30.30;42.70;;;;;;5073039;28;20425;-74
2021/07/26 11:07:07;;;;;;;3.23;2.83;;;30.30;43.00;;;;;;5073699;28;20448;-73
2021/07/26 11:09:44;;;;;;;3.87;2.40;;;30.40;42.70;;;;;;5073248;28;20440;-74
2021/07/26 11:12:11;;;;;;;2.03;1.90;;;30.70;43.60;;;;;;5073581;28;20513;-74
2021/07/26 11:14:40;;;;;;;3.47;2.70;;;30.90;41.80;;;;;;5073579;28;20452;-74
2021/07/26 11:17:08;;;;;;;2.00;1.90;;;31.00;40.70;;;;;;5073571;28;20547;-74
2021/07/26 11:19:37;;;;;;;2.70;2.50;;;31.10;41.50;;;;;;5073505;28;20448;-74
2021/07/26 11:22:06;;;;;;;2.63;2.30;;;31.10;40.30;;;;;;5072951;28;21018;-74
2021/07/26 11:24:47;;;;;;;6.77;2.50;;;31.10;40.10;;;;;;5073477;28;20510;-74
2021/07/26 11:27:16;;;;;;;2.80;2.40;;;31.00;39.50;;;;;;5073471;28;20448;-74
2021/07/26 11:29:45;;;;;;;3.30;2.00;;;30.90;38.70;;;;;;5073343;28;20471;-74
2021/07/26 11:32:18;;;;;;;3.43;2.30;;;30.70;39.90;;;;;;5073038;28;20513;-74
2021/07/26 11:34:45;;;;;;;2.73;2.53;;;30.30;39.60;;;;;;5073097;28;20957;-74
2021/07/26 11:37:14;;;;;;;2.40;2.20;;;30.10;41.00;;;;;;5073378;28;20472;-74
2021/07/26 11:39:51;;;;;;;3.43;2.30;;;30.10;41.00;;;;;;5073480;28;20476;-74
2021/07/26 11:42:20;;;;;;;5.73;2.30;;;30.40;42.30;;;;;;5073238;28;20537;-74
2021/07/26 11:44:50;;;;;;;2.13;2.03;;;30.60;40.60;;;;;;5072996;28;20954;-74
2021/07/26 11:47:18;;;;;;;3.43;2.50;;;30.80;39.70;;;;;;5073231;28;20437;-74
2021/07/26 11:49:50;;;;;;;2.30;2.20;;;31.10;38.60;;;;;;5073184;28;20440;-74
2021/07/26 11:52:17;;;;;;;2.30;2.20;;;31.30;39.40;;;;;;5072827;28;20468;-74
2021/07/26 11:54:45;;;;;;;2.03;1.93;;;31.40;38.10;;;;;;5073186;28;20447;-74
2021/07/26 11:57:13;;;;;;;2.37;2.17;;;31.60;39.70;;;;;;5073140;28;20448;-74
2021/07/26 11:59:40;;;;;;;2.57;2.37;;;31.90;37.80;;;;;;5073125;28;20444;-74
2021/07/26 12:02:13;;;;;;;2.70;2.50;;;31.90;37.60;;;;;;5072742;28;20966;-74
2021/07/26 12:04:40;;;;;;;2.63;2.43;;;31.90;37.80;;;;;;5073161;28;20424;-74
2021/07/26 12:07:08;;;;;;;2.50;2.30;;;32.00;37.80;;;;;;5073105;28;20806;-74
2021/07/26 12:09:36;;;;;;;3.37;2.20;;;32.00;37.70;;;;;;5073046;28;20440;-74
2021/07/26 12:12:11;;;;;;;3.90;2.83;;;32.30;37.00;;;;;;5072929;28;20463;-74
2021/07/26 12:14:38;;;;;;;2.87;2.47;;;32.60;36.20;;;;;;5072999;28;20439;-74
2021/07/26 12:17:09;;;;;;;3.60;2.87;;;32.40;36.20;;;;;;5074673;28;20498;-74
2021/07/26 12:19:37;;;;;;;2.57;2.37;;;32.10;37.00;;;;;;5076788;28;20432;-74
2021/07/26 12:22:21;;;;;;;2.50;2.30;;;32.10;38.20;;;;;;5076452;28;20467;-74
2021/07/26 12:24:50;;;;;;;2.53;2.33;;;31.90;38.50;;;;;;5076895;28;20432;-74
2021/07/26 12:27:28;;;;;;;2.67;2.47;;;31.60;38.30;;;;;;5076589;28;20817;-74
2021/07/26 12:29:59;;;;;;;4.93;2.60;;;31.20;38.70;;;;;;5076477;28;20445;-74
2021/07/26 12:32:28;;;;;;;3.00;2.80;;;30.90;40.00;;;;;;5076163;28;20469;-74
2021/07/26 12:35:23;;;;;;;4.17;2.80;;;30.60;40.00;;;;;;5076706;28;20448;-74
2021/07/26 12:38:17;;;;;;;3.83;3.00;;;30.10;40.70;;;;;;5076143;28;20460;-74
2021/07/26 12:40:45;;;;;;;5.20;2.87;;;29.80;43.20;;;;;;5076363;28;20432;-74
2021/07/26 12:43:14;;;;;;;3.03;2.83;;;29.90;43.40;;;;;;5076228;28;20465;-74
2021/07/26 12:45:42;;;;;;;6.77;3.10;;;30.70;42.10;;;;;;5076228;28;20444;-74
2021/07/26 12:48:15;;;;;;;3.90;3.03;;;31.30;40.50;;;;;;5076220;28;20447;-74
2021/07/26 12:50:43;;;;;;;5.57;2.60;;;31.60;39.80;;;;;;5076135;28;21016;-74